TimeEDT,TemperatureF,Dew PointF,Humidity,Sea Level PressureIn,VisibilityMPH,Wind Direction,Wind SpeedMPH,Gust SpeedMPH,PrecipitationIn,Events,Conditions,WindDirDegrees,DateUTC
12:56 AM,28.4,5.0,37,-9999,75.0,SW,54.1,62.1,N/A,,Overcast,220,2013-03-12 04:56:00
1:54 AM,28.4,6.8,40,-9999,75.0,SW,51.8,61.0,N/A,,Overcast,220,2013-03-12 05:54:00
2:47 AM,28.4,10.4,47,-9999,70.0,SW,55.2,64.4,N/A,,Overcast,220,2013-03-12 06:47:00
3:50 AM,28.4,14.0,55,-9999,70.0,SW,50.6,59.8,N/A,,Overcast,230,2013-03-12 07:50:00
4:53 AM,28.4,19.4,69,-9999,60.0,SW,44.9,56.4,N/A,,Overcast,230,2013-03-12 08:53:00
5:48 AM,26.6,26.6,100,-9999,0.0,SW,40.3,52.9,N/A,Fog,Light Freezing Fog,230,2013-03-12 09:48:00
6:50 AM,28.4,28.4,100,-9999,0.0,SW,50.6,57.5,N/A,Fog-Rain,Light Freezing Rain,220,2013-03-12 10:50:00
7:55 AM,30.2,30.2,100,-9999,0.0,SSW,52.9,58.7,N/A,Fog-Snow,Snow,210,2013-03-12 11:55:00
8:52 AM,30.2,30.2,100,-9999,0.0,SSW,50.6,63.3,N/A,Fog-Rain-Snow,Light Snow,210,2013-03-12 12:52:00
9:50 AM,30.2,30.2,100,-9999,0.0,SSW,44.9,57.5,N/A,Fog-Rain-Snow,Light Snow,210,2013-03-12 13:50:00
10:55 AM,30.2,30.2,100,-9999,0.0,SSW,47.2,54.1,N/A,Fog-Rain,Light Freezing Rain,210,2013-03-12 14:55:00
11:49 AM,30.2,30.2,100,-9999,0.0,SSW,46.0,52.9,N/A,Fog-Rain,Light Freezing Rain,200,2013-03-12 15:49:00
12:53 PM,30.2,30.2,100,-9999,0.0,SSW,47.2,52.9,N/A,Fog-Rain-Snow,Light Snow,200,2013-03-12 16:53:00
1:54 PM,32.0,32.0,100,-9999,0.0,SSW,54.1,61.0,N/A,Fog-Rain,Light Freezing Rain,200,2013-03-12 17:54:00
2:52 PM,32.0,32.0,100,-9999,0.0,SSW,57.5,65.6,N/A,Fog-Rain,Light Freezing Rain,200,2013-03-12 18:52:00
4:52 PM,32.0,32.0,100,-9999,0.0,South,46.0,65.6,N/A,Fog-Rain-Snow,Snow,180,2013-03-12 20:52:00
5:51 PM,32.0,32.0,100,-9999,0.0,South,54.1,64.4,N/A,Fog-Rain,Light Ice Pellets,180,2013-03-12 21:51:00
6:54 PM,32.0,32.0,100,-9999,0.0,South,57.5,64.4,N/A,Fog-Rain,Rain,180,2013-03-12 22:54:00
7:50 PM,32.0,32.0,100,-9999,0.0,South,56.4,64.4,N/A,Fog-Rain,Heavy Rain,180,2013-03-12 23:50:00
8:48 PM,32.0,32.0,100,-9999,0.0,South,50.6,63.3,N/A,Fog-Rain,Rain,190,2013-03-13 00:48:00
9:50 PM,33.8,33.8,100,-9999,0.0,South,36.8,52.9,N/A,Fog-Rain,Light Rain,190,2013-03-13 01:50:00
10:56 PM,33.8,33.8,100,-9999,0.0,SW,34.5,-,N/A,Fog-Rain,Light Rain,220,2013-03-13 02:56:00
11:54 PM,33.8,33.8,100,-9999,0.0,WSW,29.9,-,N/A,Fog-Rain,Light Rain,250,2013-03-13 03:54:00